Bridgeport, Alabama
Current Conditions -  °F | °C
As of 4:35 PM on Monday 22 Dec 2014 (Local Time) from K4A6 Reporting Station
Overcast Overcast  
Wind Chill: 46°   Ceiling: 1200
Heat Index: 48°   Visibility: 10mi
Dew Point: 46°   Wind: 5mph
Humidity: 93%   Direction: 120°ESE
Pressure: 29.83"   Gusts: NA
Location:  34.95°N, 85.71°W
Report Text: K4A6 222235Z AUTO 12004KT 10SM OVC012 09/08 A2983 RMK AO2
Loading
Personal Weather Stations






























Interactive Weather Map New forecast layout! Learn more

10-Day Weather Forecast

Advertisements
Track Severe Weather on mobile